createdAt,value
2019-03-24T00:04:09.429Z,58.38
2019-03-24T00:09:11.512Z,58.54
2019-03-24T00:14:13.767Z,58.58
2019-03-24T00:19:15.844Z,58.67
2019-03-24T00:30:18.539Z,58.89
2019-03-24T00:35:20.627Z,59.01
2019-03-24T00:40:22.886Z,59.00
2019-03-24T00:45:24.961Z,59.07
2019-03-24T00:50:27.049Z,58.99
2019-03-24T00:55:29.135Z,59.06
2019-03-24T01:00:42.342Z,59.32
2019-03-24T01:05:44.953Z,59.52
2019-03-24T01:10:47.054Z,59.60
2019-03-24T01:15:49.154Z,59.70
2019-03-24T01:20:51.239Z,59.63
2019-03-24T01:25:53.432Z,59.69
2019-03-24T01:30:55.624Z,59.74
2019-03-24T01:35:57.806Z,59.81
2019-03-24T01:40:59.883Z,59.97
2019-03-24T01:46:01.966Z,60.09
2019-03-24T01:51:04.154Z,60.09
2019-03-24T01:56:06.274Z,60.19
2019-03-24T02:01:08.357Z,60.22
2019-03-24T02:06:10.437Z,60.34
2019-03-24T02:11:12.503Z,60.41
2019-03-24T02:16:14.715Z,60.46
2019-03-24T02:21:16.803Z,60.52
2019-03-24T02:26:18.873Z,60.55
2019-03-24T02:31:21.089Z,60.72
2019-03-24T02:36:23.302Z,60.76
2019-03-24T02:41:25.374Z,60.90
2019-03-24T02:46:27.453Z,60.99
2019-03-24T02:51:29.533Z,61.20
2019-03-24T02:56:31.727Z,61.31
2019-03-24T03:01:33.892Z,61.30
2019-03-24T03:06:36.198Z,61.42
2019-03-24T03:11:38.259Z,61.48
2019-03-24T03:16:40.314Z,61.57
2019-03-24T03:21:42.571Z,61.55
2019-03-24T03:26:44.642Z,61.72
2019-03-24T03:31:46.735Z,61.83
2019-03-24T03:36:48.801Z,61.80
2019-03-24T03:41:50.859Z,61.76
2019-03-24T03:46:53.446Z,61.84
2019-03-24T03:51:55.613Z,61.87
2019-03-24T03:56:57.857Z,61.96
2019-03-24T04:01:59.957Z,61.92
2019-03-24T04:07:02.048Z,61.96
2019-03-24T04:12:04.252Z,61.95
2019-03-24T04:17:08.013Z,62.12
2019-03-24T04:22:10.270Z,62.24
2019-03-24T04:27:12.349Z,62.28
2019-03-24T04:32:14.482Z,62.34
2019-03-24T04:37:16.605Z,62.36
2019-03-24T04:42:18.721Z,62.40
2019-03-24T04:47:21.112Z,62.44
2019-03-24T04:52:23.198Z,62.46
2019-03-24T04:57:25.311Z,62.47
2019-03-24T05:02:27.428Z,62.46
2019-03-24T05:07:29.739Z,62.58
2019-03-24T05:12:31.929Z,62.63
2019-03-24T05:17:34.014Z,62.64
2019-03-24T05:22:36.120Z,62.77
2019-03-24T05:27:38.213Z,62.80
2019-03-24T05:32:40.341Z,62.73
2019-03-24T05:37:42.420Z,62.79
2019-03-24T05:42:44.609Z,62.87
2019-03-24T05:47:46.736Z,62.93
2019-03-24T05:52:48.852Z,62.92
2019-03-24T05:57:50.959Z,63.00
2019-03-24T06:02:53.065Z,63.07
2019-03-24T06:07:55.319Z,63.07
2019-03-24T06:12:57.496Z,63.14
2019-03-24T06:17:59.711Z,63.13
2019-03-24T06:23:01.911Z,63.17
2019-03-24T06:28:04.119Z,63.27
2019-03-24T06:33:06.320Z,63.18
2019-03-24T06:38:08.606Z,63.19
2019-03-24T06:43:10.709Z,63.28
2019-03-24T06:48:12.820Z,63.28
2019-03-24T06:53:14.962Z,63.06
2019-03-24T06:58:17.080Z,63.22
2019-03-24T07:03:19.171Z,63.36
2019-03-24T07:08:21.263Z,63.12
2019-03-24T07:13:23.373Z,63.07
2019-03-24T07:18:25.584Z,63.26
2019-03-24T07:23:27.800Z,63.08
2019-03-24T07:28:29.911Z,63.08
2019-03-24T07:33:32.053Z,63.17
2019-03-24T07:38:34.185Z,63.15
2019-03-24T07:43:36.288Z,63.06
2019-03-24T07:48:38.489Z,63.04
2019-03-24T07:53:40.699Z,63.01
2019-03-24T07:58:42.813Z,62.94
2019-03-24T08:03:45.097Z,62.80
2019-03-24T08:08:47.463Z,62.86
2019-03-24T08:13:54.065Z,62.97
2019-03-24T08:18:53.725Z,62.83
2019-03-24T08:23:55.953Z,62.71
2019-03-24T08:28:58.063Z,62.76
2019-03-24T08:34:00.276Z,62.65
2019-03-24T08:39:03.940Z,62.64
2019-03-24T08:44:06.147Z,62.29
2019-03-24T08:49:08.266Z,62.13
2019-03-24T08:54:10.495Z,62.10
2019-03-24T08:59:12.622Z,62.08
2019-03-24T09:04:14.846Z,62.14
2019-03-24T09:09:17.058Z,62.53
2019-03-24T09:14:19.169Z,62.79
2019-03-24T09:19:21.403Z,62.70
2019-03-24T09:24:23.620Z,62.50
2019-03-24T09:29:25.738Z,62.25
2019-03-24T09:34:27.847Z,61.77
2019-03-24T09:39:29.962Z,61.52
2019-03-24T09:44:32.045Z,61.53
2019-03-24T09:49:34.137Z,61.37
2019-03-24T09:54:36.223Z,61.05
2019-03-24T09:59:38.361Z,60.82
2019-03-24T10:04:40.460Z,60.81
2019-03-24T10:09:42.559Z,60.74
2019-03-24T10:14:44.706Z,60.63
2019-03-24T10:19:46.843Z,60.60
2019-03-24T10:24:48.950Z,60.48
2019-03-24T10:29:51.077Z,60.19
2019-03-24T10:34:53.361Z,60.00
2019-03-24T10:39:55.473Z,59.64
2019-03-24T10:44:57.590Z,59.45
2019-03-24T10:49:59.702Z,58.90
2019-03-24T10:55:02.040Z,58.08
2019-03-24T11:00:05.624Z,57.28
2019-03-24T11:05:08.317Z,56.10
2019-03-24T11:10:10.536Z,55.32
2019-03-24T11:15:12.731Z,54.89
2019-03-24T11:20:14.933Z,56.00
2019-03-24T11:25:17.058Z,56.52
2019-03-24T11:30:19.337Z,56.99
2019-03-24T11:35:21.559Z,57.72
2019-03-24T11:40:23.784Z,58.61
2019-03-24T11:45:25.912Z,59.36
2019-03-24T11:50:28.027Z,59.89
2019-03-24T11:55:30.152Z,60.36
2019-03-24T12:00:34.126Z,60.74
2019-03-24T12:05:36.626Z,60.86
2019-03-24T12:10:38.853Z,61.08
2019-03-24T12:15:41.064Z,61.24
2019-03-24T12:20:43.214Z,61.26
2019-03-24T12:25:45.404Z,61.19
2019-03-24T12:30:47.666Z,61.13
2019-03-24T12:35:49.889Z,60.97
2019-03-24T12:40:54.647Z,60.83
2019-03-24T12:45:56.826Z,60.66
2019-03-24T12:50:59.255Z,60.57
2019-03-24T12:56:01.439Z,60.53
2019-03-24T13:01:03.616Z,60.51
2019-03-24T13:06:05.700Z,60.63
2019-03-24T13:11:07.876Z,60.81
2019-03-24T13:16:09.967Z,60.95
2019-03-24T13:21:12.172Z,61.04
2019-03-24T13:26:14.280Z,61.19
2019-03-24T13:31:16.359Z,61.27
2019-03-24T13:36:18.471Z,61.35
2019-03-24T13:41:20.605Z,61.35
2019-03-24T13:46:23.064Z,61.29
2019-03-24T13:51:25.206Z,61.26
2019-03-24T13:56:27.341Z,61.16
2019-03-24T14:01:29.543Z,61.08
2019-03-24T14:06:31.805Z,61.06
2019-03-24T14:11:33.920Z,61.11
2019-03-24T14:16:36.091Z,61.20
2019-03-24T14:21:38.294Z,61.24
2019-03-24T14:26:40.376Z,61.10
2019-03-24T14:31:42.532Z,61.10
2019-03-24T14:36:44.701Z,61.03
2019-03-24T14:41:46.819Z,60.93
2019-03-24T14:46:49.048Z,60.90
2019-03-24T14:51:51.349Z,60.97
2019-03-24T14:56:53.520Z,60.84
2019-03-24T15:01:55.729Z,60.79
2019-03-24T15:06:57.920Z,60.89
2019-03-24T15:12:00.216Z,61.07
2019-03-24T15:17:02.422Z,61.02
2019-03-24T15:22:04.635Z,60.95
2019-03-24T15:27:06.758Z,60.89
2019-03-24T15:32:08.909Z,60.89
2019-03-24T15:37:11.135Z,60.95
2019-03-24T15:42:13.256Z,60.88
2019-03-24T15:47:15.374Z,60.75
2019-03-24T15:52:17.462Z,60.68
2019-03-24T15:57:22.155Z,60.79
2019-03-24T16:02:24.374Z,61.00
2019-03-24T16:07:26.453Z,61.40
2019-03-24T16:12:28.666Z,61.54
2019-03-24T16:17:30.848Z,61.52
2019-03-24T16:22:33.065Z,61.58
2019-03-24T16:27:35.223Z,61.42
2019-03-24T16:32:37.326Z,60.80
2019-03-24T16:37:39.435Z,61.33
2019-03-24T16:42:41.555Z,61.72
2019-03-24T16:47:43.634Z,61.49
2019-03-24T16:52:45.837Z,60.73
2019-03-24T16:57:49.841Z,61.39
2019-03-24T17:02:51.961Z,61.58
2019-03-24T17:07:54.165Z,61.72
2019-03-24T17:12:56.408Z,61.94
2019-03-24T17:17:58.632Z,62.15
2019-03-24T17:23:00.838Z,62.18
2019-03-24T17:28:03.115Z,62.42
2019-03-24T17:33:05.326Z,62.52
2019-03-24T17:38:07.583Z,62.59
2019-03-24T17:43:09.724Z,62.65
2019-03-24T17:48:11.919Z,62.63
2019-03-24T17:53:14.215Z,62.67
2019-03-24T17:58:16.334Z,62.84
2019-03-24T18:03:18.444Z,62.98
2019-03-24T18:08:20.607Z,63.13
2019-03-24T18:13:22.746Z,63.18
2019-03-24T18:18:24.929Z,63.18
2019-03-24T18:23:27.054Z,63.38
2019-03-24T18:28:29.153Z,63.37
2019-03-24T18:33:31.414Z,63.38
2019-03-24T18:38:33.523Z,63.67
2019-03-24T18:43:36.911Z,63.78
2019-03-24T18:48:39.043Z,63.85
2019-03-24T18:53:41.212Z,63.91
2019-03-24T18:58:43.331Z,64.11
2019-03-24T19:03:45.559Z,64.21
2019-03-24T19:08:47.699Z,64.13
2019-03-24T19:13:49.797Z,64.04
2019-03-24T19:18:51.943Z,64.02
2019-03-24T19:23:55.858Z,64.03
2019-03-24T19:28:58.150Z,63.89
2019-03-24T19:34:00.464Z,63.91
2019-03-24T19:39:04.839Z,63.90
2019-03-24T19:44:07.049Z,64.16
2019-03-24T19:49:11.430Z,64.35
2019-03-24T19:54:13.557Z,64.39
2019-03-24T19:59:15.685Z,64.43
2019-03-24T20:04:17.835Z,64.71
2019-03-24T20:09:20.040Z,64.57
2019-03-24T20:14:24.059Z,64.68
2019-03-24T20:19:26.316Z,64.70
2019-03-24T20:24:28.432Z,64.63
2019-03-24T20:29:30.560Z,64.75
2019-03-24T20:34:32.728Z,64.79
2019-03-24T20:39:34.924Z,64.72
2019-03-24T20:44:37.204Z,64.76
2019-03-24T20:49:39.297Z,64.75
2019-03-24T20:54:41.418Z,64.82
2019-03-24T20:59:43.512Z,65.05
2019-03-24T21:04:45.620Z,65.15
2019-03-24T21:09:47.786Z,65.18
2019-03-24T21:14:49.992Z,65.21
2019-03-24T21:19:52.123Z,65.13
2019-03-24T21:24:54.242Z,65.24
2019-03-24T21:29:56.372Z,65.53
2019-03-24T21:34:58.620Z,65.52
2019-03-24T21:40:00.851Z,65.68
2019-03-24T21:45:03.812Z,65.59
2019-03-24T21:50:06.922Z,65.49
2019-03-24T21:55:09.127Z,65.61
2019-03-24T22:00:11.441Z,65.57
2019-03-24T22:05:13.665Z,65.58
2019-03-24T22:10:15.761Z,65.68
2019-03-24T22:15:17.849Z,65.56
2019-03-24T22:20:19.951Z,65.36
2019-03-24T22:25:22.098Z,65.16
2019-03-24T22:30:24.367Z,64.96
2019-03-24T22:35:26.570Z,65.07
2019-03-24T22:40:28.683Z,65.25
2019-03-24T22:45:30.827Z,65.32
2019-03-24T22:50:32.919Z,65.33
2019-03-24T22:55:35.107Z,65.25
2019-03-24T23:00:56.180Z,65.39
2019-03-24T23:05:58.369Z,65.40
2019-03-24T23:11:00.500Z,65.38
2019-03-24T23:16:02.719Z,65.49
2019-03-24T23:21:04.933Z,65.45
2019-03-24T23:26:07.152Z,65.52
2019-03-24T23:31:09.340Z,65.78
2019-03-24T23:36:11.509Z,65.79
2019-03-24T23:41:14.020Z,65.70
2019-03-24T23:46:16.107Z,65.79
2019-03-24T23:51:18.196Z,65.86
2019-03-24T23:56:20.305Z,65.75
